Time;durP1;ratioP1;P1;durP2;ratioP2;P2;SDS_P1;SDS_P2;PMS_P1;PMS_P2;Temp;Humidity;BMP_temperature;BMP_pressure;BME280_temperature;BME280_humidity;BME280_pressure;Samples;Min_cycle;Max_cycle;Signal;HPM_P1;HPM_P2
2022/01/05 00:02:25;;;;;;;9.63;6.20;;;;;;;;;;5059684;28;20441;-53
2022/01/05 00:04:54;;;;;;;10.60;7.03;;;;;;;;;;5059177;28;20213;-53
2022/01/05 00:07:21;;;;;;;8.80;6.43;;;;;;;;;;5058945;28;20208;-53
2022/01/05 00:09:49;;;;;;;8.30;6.32;;;;;;;;;;5058970;28;20200;-53
2022/01/05 00:12:16;;;;;;;8.63;5.97;;;;;;;;;;5058538;28;20279;-53
2022/01/05 00:14:44;;;;;;;9.50;5.95;;;;;;;;;;5058534;28;20228;-53
2022/01/05 00:17:11;;;;;;;9.02;6.07;;;;;;;;;;5058736;28;20201;-53
2022/01/05 00:19:39;;;;;;;8.48;6.18;;;;;;;;;;5058504;28;20209;-53
2022/01/05 00:22:08;;;;;;;8.00;5.85;;;;;;;;;;5058401;28;20211;-53
2022/01/05 00:24:36;;;;;;;7.68;5.93;;;;;;;;;;5059091;28;20205;-53
2022/01/05 00:27:04;;;;;;;8.50;5.55;;;;;;;;;;5058182;28;20208;-53
2022/01/05 00:29:31;;;;;;;8.02;4.85;;;;;;;;;;5059406;28;20220;-53
2022/01/05 00:31:59;;;;;;;7.07;4.97;;;;;;;;;;5058581;28;20212;-53
2022/01/05 00:34:26;;;;;;;7.13;5.15;;;;;;;;;;5059543;28;20481;-53
2022/01/05 00:36:53;;;;;;;6.47;4.88;;;;;;;;;;5059192;28;20225;-53
2022/01/05 00:39:22;;;;;;;6.13;4.68;;;;;;;;;;5069538;28;20313;-54
2022/01/05 00:41:50;;;;;;;6.35;4.80;;;;;;;;;;5068454;28;20239;-53
2022/01/05 00:44:18;;;;;;;7.13;4.80;;;;;;;;;;5059579;28;20205;-53
2022/01/05 00:46:46;;;;;;;6.95;4.85;;;;;;;;;;5058990;28;20207;-53
2022/01/05 00:49:13;;;;;;;6.60;4.22;;;;;;;;;;5059432;28;20224;-53
2022/01/05 00:51:41;;;;;;;5.78;4.18;;;;;;;;;;5058951;28;20201;-53
2022/01/05 00:54:08;;;;;;;5.53;4.03;;;;;;;;;;5058349;28;20205;-53
2022/01/05 00:56:37;;;;;;;6.47;4.60;;;;;;;;;;5058413;28;20205;-53
2022/01/05 00:59:04;;;;;;;4.75;3.60;;;;;;;;;;5058637;28;20215;-53
2022/01/05 01:01:32;;;;;;;5.60;3.95;;;;;;;;;;5058088;28;20214;-53
2022/01/05 01:03:59;;;;;;;5.70;3.95;;;;;;;;;;5057894;28;20204;-53
2022/01/05 01:06:27;;;;;;;5.53;3.35;;;;;;;;;;5057732;28;20197;-53
2022/01/05 01:08:54;;;;;;;5.50;3.80;;;;;;;;;;5058394;28;20493;-53
2022/01/05 01:11:21;;;;;;;4.70;3.20;;;;;;;;;;5057640;28;20201;-53
2022/01/05 01:13:50;;;;;;;5.40;3.60;;;;;;;;;;5058188;28;20735;-53
2022/01/05 01:16:17;;;;;;;4.57;3.17;;;;;;;;;;5057688;28;20201;-53
2022/01/05 01:18:45;;;;;;;4.88;3.28;;;;;;;;;;5057647;28;20204;-53
2022/01/05 01:21:12;;;;;;;3.97;3.00;;;;;;;;;;5057961;28;20612;-53
2022/01/05 01:23:42;;;;;;;4.90;3.10;;;;;;;;;;5058124;28;20204;-53
2022/01/05 01:26:10;;;;;;;3.95;2.80;;;;;;;;;;5057630;28;20209;-53
2022/01/05 01:28:37;;;;;;;3.33;2.63;;;;;;;;;;5058087;28;20215;-53
2022/01/05 01:31:06;;;;;;;3.83;2.47;;;;;;;;;;5057829;28;20236;-53
2022/01/05 01:33:33;;;;;;;4.35;2.70;;;;;;;;;;5057811;28;20609;-52
2022/01/05 01:36:00;;;;;;;4.07;2.70;;;;;;;;;;5056962;28;20237;-52
2022/01/05 01:38:28;;;;;;;3.83;2.60;;;;;;;;;;5056764;28;20205;-52
2022/01/05 01:40:55;;;;;;;4.68;2.88;;;;;;;;;;5057376;28;20220;-53
2022/01/05 01:43:22;;;;;;;4.25;2.88;;;;;;;;;;5057780;28;20216;-53
2022/01/05 01:45:50;;;;;;;3.63;2.63;;;;;;;;;;5057381;28;20204;-53
2022/01/05 01:48:19;;;;;;;3.28;2.33;;;;;;;;;;5056616;28;20204;-53
2022/01/05 01:50:46;;;;;;;3.45;2.30;;;;;;;;;;5057481;28;20501;-53
2022/01/05 01:53:13;;;;;;;2.63;2.03;;;;;;;;;;5057631;28;20205;-53
2022/01/05 01:55:41;;;;;;;3.05;2.22;;;;;;;;;;5057392;28;20573;-53
2022/01/05 01:58:09;;;;;;;3.13;2.50;;;;;;;;;;5057409;28;20201;-52
2022/01/05 02:00:37;;;;;;;3.30;2.20;;;;;;;;;;5057391;28;20252;-52
2022/01/05 02:03:04;;;;;;;2.63;2.10;;;;;;;;;;5057396;28;20507;-52
2022/01/05 02:05:33;;;;;;;2.67;1.92;;;;;;;;;;5056918;28;20201;-53
2022/01/05 02:08:02;;;;;;;2.72;2.10;;;;;;;;;;5056680;28;20205;-53
2022/01/05 02:10:29;;;;;;;2.80;1.92;;;;;;;;;;5057135;28;20304;-53
2022/01/05 02:12:56;;;;;;;2.42;1.83;;;;;;;;;;5057197;28;20601;-53
2022/01/05 02:15:24;;;;;;;3.20;2.03;;;;;;;;;;5057238;28;20215;-53
2022/01/05 02:17:56;;;;;;;3.03;1.88;;;;;;;;;;5056596;28;20262;-53
2022/01/05 02:20:24;;;;;;;2.20;1.73;;;;;;;;;;5057348;28;20225;-53
2022/01/05 02:22:54;;;;;;;2.10;1.70;;;;;;;;;;5057038;28;20481;-53
2022/01/05 02:25:21;;;;;;;2.45;1.75;;;;;;;;;;5057374;28;20212;-52
2022/01/05 02:27:50;;;;;;;2.47;1.88;;;;;;;;;;5056142;28;20201;-53
2022/01/05 02:30:20;;;;;;;1.90;1.42;;;;;;;;;;5056995;28;20222;-53
2022/01/05 02:32:47;;;;;;;1.80;1.45;;;;;;;;;;5057152;28;20204;-53
2022/01/05 02:35:14;;;;;;;1.80;1.60;;;;;;;;;;5055841;28;20260;-53
2022/01/05 02:37:42;;;;;;;1.75;1.30;;;;;;;;;;5057074;28;20205;-53
2022/01/05 02:40:13;;;;;;;1.60;1.38;;;;;;;;;;5056308;28;20205;-53
2022/01/05 02:42:41;;;;;;;1.67;1.30;;;;;;;;;;5056704;28;20216;-53
2022/01/05 02:45:09;;;;;;;1.70;1.42;;;;;;;;;;5055800;28;20475;-53
2022/01/05 02:47:37;;;;;;;1.23;1.08;;;;;;;;;;5056465;28;20613;-53
2022/01/05 02:50:05;;;;;;;1.40;1.30;;;;;;;;;;5057252;28;20611;-53
2022/01/05 02:52:32;;;;;;;1.55;1.40;;;;;;;;;;5060763;28;20212;-53
2022/01/05 02:55:00;;;;;;;1.88;1.38;;;;;;;;;;5060080;28;20205;-53
2022/01/05 02:57:29;;;;;;;2.10;1.30;;;;;;;;;;5060477;28;20660;-53
2022/01/05 02:59:57;;;;;;;1.58;1.38;;;;;;;;;;5060879;28;20208;-53
2022/01/05 03:02:24;;;;;;;1.38;0.98;;;;;;;;;;5060370;28;20229;-53
2022/01/05 03:04:51;;;;;;;1.50;1.08;;;;;;;;;;5059700;28;20212;-53
2022/01/05 03:07:19;;;;;;;1.40;1.10;;;;;;;;;;5060879;28;20209;-53
2022/01/05 03:09:46;;;;;;;1.75;1.02;;;;;;;;;;5060401;28;20553;-53
2022/01/05 03:12:14;;;;;;;1.00;0.95;;;;;;;;;;5060380;28;20208;-53
2022/01/05 03:14:43;;;;;;;1.40;0.90;;;;;;;;;;5059685;28;20250;-53
2022/01/05 03:17:10;;;;;;;1.65;1.20;;;;;;;;;;5060472;28;20586;-53
2022/01/05 03:19:38;;;;;;;1.13;0.90;;;;;;;;;;5059799;28;20221;-53
2022/01/05 03:22:05;;;;;;;1.13;1.00;;;;;;;;;;5059821;28;20504;-53
2022/01/05 03:24:33;;;;;;;1.00;0.90;;;;;;;;;;5059581;28;20228;-53
2022/01/05 03:27:00;;;;;;;1.23;0.90;;;;;;;;;;5060195;28;20516;-53
2022/01/05 03:29:27;;;;;;;1.20;0.90;;;;;;;;;;5059363;28;20212;-53
2022/01/05 03:31:56;;;;;;;1.20;0.80;;;;;;;;;;5059644;28;20201;-53
2022/01/05 03:34:24;;;;;;;1.10;1.00;;;;;;;;;;5059346;28;20196;-53
2022/01/05 03:36:51;;;;;;;1.05;0.90;;;;;;;;;;5059566;28;20233;-53
2022/01/05 03:39:18;;;;;;;1.00;0.80;;;;;;;;;;5060010;28;20295;-52
2022/01/05 03:41:46;;;;;;;1.02;0.73;;;;;;;;;;5059186;28;20235;-53
2022/01/05 03:44:13;;;;;;;1.10;0.90;;;;;;;;;;5059256;28;20201;-53
2022/01/05 03:46:40;;;;;;;0.80;0.80;;;;;;;;;;5059688;28;20205;-53
2022/01/05 03:49:09;;;;;;;0.85;0.70;;;;;;;;;;5059281;28;20205;-53
2022/01/05 03:51:36;;;;;;;0.95;0.68;;;;;;;;;;5059911;28;20227;-52
2022/01/05 03:54:04;;;;;;;0.85;0.70;;;;;;;;;;5058352;28;20201;-53
2022/01/05 03:56:32;;;;;;;0.70;0.70;;;;;;;;;;5058978;28;20213;-53
2022/01/05 03:58:59;;;;;;;0.73;0.60;;;;;;;;;;5058871;28;20232;-53
2022/01/05 04:01:26;;;;;;;0.90;0.80;;;;;;;;;;5058938;28;20239;-53
2022/01/05 04:03:54;;;;;;;0.70;0.50;;;;;;;;;;5058682;28;20197;-53
2022/01/05 04:06:23;;;;;;;0.50;0.40;;;;;;;;;;5060029;28;20205;-53
2022/01/05 04:08:50;;;;;;;0.60;0.60;;;;;;;;;;5059473;28;20224;-52
2022/01/05 04:11:17;;;;;;;0.68;0.68;;;;;;;;;;5065179;28;20212;-53
2022/01/05 04:13:44;;;;;;;0.77;0.50;;;;;;;;;;5070226;28;20604;-52
2022/01/05 04:16:12;;;;;;;0.70;0.68;;;;;;;;;;5064191;28;20212;-52
2022/01/05 04:18:39;;;;;;;0.88;0.60;;;;;;;;;;5060039;28;20485;-53
2022/01/05 04:21:07;;;;;;;0.88;0.77;;;;;;;;;;5060122;28;20239;-53
2022/01/05 04:23:35;;;;;;;0.77;0.57;;;;;;;;;;5059141;28;20200;-53
2022/01/05 04:26:03;;;;;;;0.60;0.55;;;;;;;;;;5059183;28;20220;-53
2022/01/05 04:28:30;;;;;;;0.70;0.70;;;;;;;;;;5058913;28;20212;-53
2022/01/05 04:30:58;;;;;;;0.70;0.50;;;;;;;;;;5058876;28;20216;-53
2022/01/05 04:33:25;;;;;;;0.50;0.43;;;;;;;;;;5057605;28;20490;-53
2022/01/05 04:35:52;;;;;;;0.93;0.45;;;;;;;;;;5057772;28;20678;-53
2022/01/05 04:38:20;;;;;;;0.40;0.40;;;;;;;;;;5058332;28;20205;-53
2022/01/05 04:40:48;;;;;;;0.55;0.43;;;;;;;;;;5057488;28;20205;-52
2022/01/05 04:43:16;;;;;;;0.60;0.50;;;;;;;;;;5058427;28;20520;-52
2022/01/05 04:45:43;;;;;;;0.75;0.50;;;;;;;;;;5058729;28;20213;-53
2022/01/05 04:48:11;;;;;;;0.45;0.45;;;;;;;;;;5058930;28;20204;-53
2022/01/05 04:50:38;;;;;;;0.60;0.60;;;;;;;;;;5058514;28;20205;-53
2022/01/05 04:53:05;;;;;;;0.40;0.40;;;;;;;;;;5058389;28;20197;-53
2022/01/05 04:55:33;;;;;;;0.63;0.40;;;;;;;;;;5058559;28;20476;-53
2022/01/05 04:58:01;;;;;;;1.23;0.50;;;;;;;;;;5058570;28;20224;-53
2022/01/05 05:00:29;;;;;;;0.40;0.40;;;;;;;;;;5058231;28;20205;-53
2022/01/05 05:02:56;;;;;;;0.40;0.40;;;;;;;;;;5057227;28;20244;-53
2022/01/05 05:05:24;;;;;;;0.40;0.40;;;;;;;;;;5058250;28;20205;-53
2022/01/05 05:07:51;;;;;;;0.30;0.30;;;;;;;;;;5058358;28;20204;-52
2022/01/05 05:10:18;;;;;;;0.50;0.40;;;;;;;;;;5058244;28;20213;-52
2022/01/05 05:12:46;;;;;;;0.80;0.40;;;;;;;;;;5058090;28;20477;-53
2022/01/05 05:15:14;;;;;;;0.50;0.40;;;;;;;;;;5058377;28;20205;-53
2022/01/05 05:17:42;;;;;;;0.30;0.30;;;;;;;;;;5058179;28;20205;-52
2022/01/05 05:20:10;;;;;;;0.88;0.40;;;;;;;;;;5058166;28;20284;-52
2022/01/05 05:22:37;;;;;;;0.40;0.40;;;;;;;;;;5057369;28;20221;-52
2022/01/05 05:25:04;;;;;;;0.30;0.28;;;;;;;;;;5057963;28;20209;-52
2022/01/05 05:27:32;;;;;;;0.38;0.30;;;;;;;;;;5057928;28;20585;-52
2022/01/05 05:30:00;;;;;;;0.20;0.20;;;;;;;;;;5057557;28;20204;-53
2022/01/05 05:32:28;;;;;;;0.55;0.22;;;;;;;;;;5056946;28;20189;-53
2022/01/05 05:34:56;;;;;;;0.32;0.32;;;;;;;;;;5056725;28;20618;-52
2022/01/05 05:37:23;;;;;;;0.30;0.30;;;;;;;;;;5056995;28;20241;-53
2022/01/05 05:39:50;;;;;;;0.30;0.30;;;;;;;;;;5056816;28;20232;-53
2022/01/05 05:42:18;;;;;;;0.30;0.30;;;;;;;;;;5056380;28;20232;-53
2022/01/05 05:44:45;;;;;;;0.30;0.30;;;;;;;;;;5056686;28;20236;-53
2022/01/05 05:47:13;;;;;;;0.25;0.20;;;;;;;;;;5056746;28;20216;-53
2022/01/05 05:49:41;;;;;;;0.30;0.30;;;;;;;;;;5056130;28;20500;-53
2022/01/05 05:52:09;;;;;;;0.40;0.40;;;;;;;;;;5056025;28;20267;-53
2022/01/05 05:54:37;;;;;;;0.40;0.40;;;;;;;;;;5056361;28;20205;-53
2022/01/05 05:57:04;;;;;;;0.30;0.30;;;;;;;;;;5055565;28;20209;-53
2022/01/05 05:59:31;;;;;;;0.20;0.20;;;;;;;;;;5055659;28;20201;-52
2022/01/05 06:02:00;;;;;;;0.30;0.30;;;;;;;;;;5021537;28;20232;-53
2022/01/05 06:04:29;;;;;;;0.40;0.40;;;;;;;;;;5054351;28;20200;-53
2022/01/05 06:06:58;;;;;;;0.32;0.30;;;;;;;;;;5055112;28;20197;-53
2022/01/05 06:09:25;;;;;;;0.30;0.30;;;;;;;;;;5054473;28;20197;-53
2022/01/05 06:11:53;;;;;;;0.50;0.30;;;;;;;;;;5054711;28;20211;-53
2022/01/05 06:14:20;;;;;;;0.30;0.30;;;;;;;;;;5054121;28;20219;-53
2022/01/05 06:16:47;;;;;;;0.20;0.17;;;;;;;;;;5054799;28;20217;-52
2022/01/05 06:19:15;;;;;;;0.32;0.30;;;;;;;;;;5055114;28;20212;-53
2022/01/05 06:21:44;;;;;;;0.35;0.32;;;;;;;;;;5054875;28;20241;-53
2022/01/05 06:24:12;;;;;;;0.43;0.30;;;;;;;;;;5054940;28;20212;-53
2022/01/05 06:26:40;;;;;;;0.32;0.30;;;;;;;;;;5061487;28;20208;-53
2022/01/05 06:29:08;;;;;;;0.30;0.30;;;;;;;;;;5061017;28;20205;-53
2022/01/05 06:31:35;;;;;;;0.30;0.30;;;;;;;;;;5061566;28;20204;-52
2022/01/05 06:34:03;;;;;;;0.30;0.30;;;;;;;;;;5061434;28;20573;-53
2022/01/05 06:36:30;;;;;;;0.20;0.20;;;;;;;;;;5061690;28;20243;-52
2022/01/05 06:38:57;;;;;;;0.20;0.20;;;;;;;;;;5062326;28;20196;-53
2022/01/05 06:41:26;;;;;;;0.22;0.22;;;;;;;;;;5061158;28;20208;-53
2022/01/05 06:43:53;;;;;;;0.25;0.25;;;;;;;;;;5061005;28;20196;-53
2022/01/05 06:46:21;;;;;;;0.40;0.40;;;;;;;;;;5061807;28;20668;-53
2022/01/05 06:48:48;;;;;;;0.30;0.30;;;;;;;;;;5061155;28;20450;-53
2022/01/05 06:51:16;;;;;;;0.30;0.30;;;;;;;;;;5061291;28;20215;-53
2022/01/05 06:53:44;;;;;;;0.47;0.22;;;;;;;;;;5061225;28;20216;-53
2022/01/05 06:56:11;;;;;;;0.30;0.30;;;;;;;;;;5061643;28;20216;-53
2022/01/05 06:58:40;;;;;;;0.10;0.10;;;;;;;;;;5061952;28;20221;-53
2022/01/05 07:01:07;;;;;;;0.28;0.20;;;;;;;;;;5062005;28;20213;-52
2022/01/05 07:03:35;;;;;;;0.30;0.30;;;;;;;;;;5061416;28;20529;-52
2022/01/05 07:06:02;;;;;;;0.20;0.20;;;;;;;;;;5061713;28;20228;-53
2022/01/05 07:08:29;;;;;;;0.20;0.20;;;;;;;;;;5062063;28;20209;-53
2022/01/05 07:10:57;;;;;;;0.30;0.20;;;;;;;;;;5062263;28;20470;-53
2022/01/05 07:13:24;;;;;;;0.20;0.20;;;;;;;;;;5061932;28;20193;-53
2022/01/05 07:15:53;;;;;;;0.22;0.22;;;;;;;;;;5062089;28;20205;-53
2022/01/05 07:18:20;;;;;;;0.32;0.28;;;;;;;;;;5062217;28;20205;-52
2022/01/05 07:20:48;;;;;;;0.30;0.30;;;;;;;;;;5061754;28;20213;-53
2022/01/05 07:23:15;;;;;;;0.28;0.20;;;;;;;;;;5061475;28;20232;-53
2022/01/05 07:25:42;;;;;;;0.20;0.20;;;;;;;;;;5062401;28;20335;-53
2022/01/05 07:28:10;;;;;;;0.20;0.20;;;;;;;;;;5062194;28;20204;-53
2022/01/05 07:30:37;;;;;;;0.20;0.20;;;;;;;;;;5061626;28;20232;-53
2022/01/05 07:33:06;;;;;;;0.30;0.25;;;;;;;;;;5061381;28;20200;-53
2022/01/05 07:35:33;;;;;;;0.32;0.25;;;;;;;;;;5061613;28;20236;-53
2022/01/05 07:38:01;;;;;;;0.30;0.30;;;;;;;;;;5058062;28;20197;-53
2022/01/05 07:40:28;;;;;;;0.20;0.20;;;;;;;;;;5057848;28;20201;-53
2022/01/05 07:42:56;;;;;;;0.20;0.20;;;;;;;;;;5057299;28;20239;-53
2022/01/05 07:45:23;;;;;;;0.13;0.13;;;;;;;;;;5066676;28;20205;-53
2022/01/05 07:47:50;;;;;;;0.30;0.20;;;;;;;;;;5067537;28;20205;-53
2022/01/05 07:50:19;;;;;;;0.20;0.20;;;;;;;;;;5060649;28;20205;-53
2022/01/05 07:52:46;;;;;;;0.20;0.20;;;;;;;;;;5058537;28;20193;-52
2022/01/05 07:55:14;;;;;;;0.40;0.22;;;;;;;;;;5058472;28;20205;-52
2022/01/05 07:57:42;;;;;;;0.20;0.20;;;;;;;;;;5058133;28;20205;-53
2022/01/05 08:00:10;;;;;;;0.35;0.20;;;;;;;;;;5057990;28;20205;-53
2022/01/05 08:02:37;;;;;;;0.30;0.30;;;;;;;;;;5057760;28;20236;-53
2022/01/05 08:05:06;;;;;;;0.17;0.17;;;;;;;;;;5058358;28;20209;-52
2022/01/05 08:07:35;;;;;;;0.22;0.22;;;;;;;;;;5057772;28;20208;-52
2022/01/05 08:10:02;;;;;;;0.20;0.20;;;;;;;;;;5057290;28;20216;-52
2022/01/05 08:12:30;;;;;;;0.25;0.20;;;;;;;;;;5056750;28;20205;-52
2022/01/05 08:14:57;;;;;;;0.20;0.20;;;;;;;;;;5057066;28;20214;-52
2022/01/05 08:17:24;;;;;;;0.30;0.30;;;;;;;;;;5057462;28;20205;-52
2022/01/05 08:19:52;;;;;;;0.20;0.20;;;;;;;;;;5057079;28;20716;-53
2022/01/05 08:22:20;;;;;;;0.20;0.20;;;;;;;;;;5056902;28;20228;-53
2022/01/05 08:24:49;;;;;;;0.20;0.20;;;;;;;;;;5056321;28;20201;-52
2022/01/05 08:27:16;;;;;;;1.13;0.55;;;;;;;;;;5057429;28;20204;-52
2022/01/05 08:29:43;;;;;;;0.25;0.25;;;;;;;;;;5056909;28;20209;-53
2022/01/05 08:32:10;;;;;;;1.85;0.32;;;;;;;;;;5056996;28;20213;-53
2022/01/05 08:34:38;;;;;;;0.28;0.28;;;;;;;;;;5056041;28;20201;-53
2022/01/05 08:37:05;;;;;;;0.13;0.10;;;;;;;;;;5056843;28;20232;-53
2022/01/05 08:39:33;;;;;;;0.70;0.30;;;;;;;;;;5057193;28;20205;-53
2022/01/05 08:42:01;;;;;;;0.30;0.28;;;;;;;;;;5056447;28;20709;-52
2022/01/05 08:44:29;;;;;;;1.23;0.30;;;;;;;;;;5055777;28;20216;-52
2022/01/05 08:46:56;;;;;;;4.10;0.47;;;;;;;;;;5056762;28;20205;-53
2022/01/05 08:49:23;;;;;;;3.03;0.60;;;;;;;;;;5056677;28;20205;-52
2022/01/05 08:51:51;;;;;;;3.38;0.40;;;;;;;;;;5056394;28;20206;-53
2022/01/05 08:54:18;;;;;;;2.03;0.98;;;;;;;;;;5055525;28;20209;-53
2022/01/05 08:56:46;;;;;;;3.00;0.63;;;;;;;;;;5056450;28;20205;-53
2022/01/05 08:59:14;;;;;;;1.80;0.65;;;;;;;;;;5056131;28;20589;-53
2022/01/05 09:01:43;;;;;;;2.25;0.80;;;;;;;;;;5055918;28;20529;-52
2022/01/05 09:04:11;;;;;;;1.50;0.73;;;;;;;;;;5055762;28;20592;-52
2022/01/05 09:06:38;;;;;;;1.98;0.90;;;;;;;;;;5056447;28;20308;-52
2022/01/05 09:09:06;;;;;;;1.27;0.75;;;;;;;;;;5056523;28;20592;-52
2022/01/05 09:11:33;;;;;;;1.77;0.63;;;;;;;;;;5055335;28;20197;-53
2022/01/05 09:14:01;;;;;;;2.60;0.50;;;;;;;;;;5055916;28;20585;-54
2022/01/05 09:16:30;;;;;;;1.77;0.70;;;;;;;;;;5055480;28;20205;-52
2022/01/05 09:18:58;;;;;;;1.48;0.60;;;;;;;;;;5055681;28;20209;-53
2022/01/05 09:21:26;;;;;;;3.50;0.65;;;;;;;;;;5055958;28;20196;-53
2022/01/05 09:23:53;;;;;;;1.95;0.60;;;;;;;;;;5056075;28;20239;-52
2022/01/05 09:26:21;;;;;;;1.27;0.57;;;;;;;;;;5056007;28;20520;-52
2022/01/05 09:28:49;;;;;;;0.40;0.40;;;;;;;;;;5055701;28;20208;-52
2022/01/05 09:31:17;;;;;;;1.88;0.60;;;;;;;;;;5055111;28;20227;-52
2022/01/05 09:33:46;;;;;;;0.93;0.70;;;;;;;;;;5055043;28;20201;-52
2022/01/05 09:36:17;;;;;;;1.42;0.60;;;;;;;;;;5054585;28;20232;-53
2022/01/05 09:44:14;;;;;;;2.38;0.80;;;;;;;;;;5055389;28;20277;-53
2022/01/05 09:46:47;;;;;;;14.57;10.63;;;;;;;;;;5055631;28;20519;-52
2022/01/05 09:49:19;;;;;;;24.98;19.25;;;;;;;;;;5055486;28;20228;-52
2022/01/05 09:51:48;;;;;;;20.42;17.90;;;;;;;;;;5055576;28;20205;-52
2022/01/05 09:54:15;;;;;;;19.05;15.60;;;;;;;;;;5054963;28;20479;-52
2022/01/05 09:56:43;;;;;;;18.40;15.30;;;;;;;;;;5055603;28;20216;-52
2022/01/05 09:59:11;;;;;;;18.38;14.82;;;;;;;;;;5054265;28;20205;-52
2022/01/05 10:01:39;;;;;;;16.60;14.20;;;;;;;;;;5055032;28;20209;-52
2022/01/05 10:04:06;;;;;;;17.65;14.77;;;;;;;;;;5054950;28;20771;-52
2022/01/05 10:06:37;;;;;;;18.05;14.27;;;;;;;;;;5055743;28;20197;-52
2022/01/05 10:09:05;;;;;;;17.48;14.10;;;;;;;;;;5055449;28;20525;-52
2022/01/05 10:11:32;;;;;;;15.13;13.23;;;;;;;;;;5055163;28;20201;-52
2022/01/05 10:14:00;;;;;;;15.82;13.20;;;;;;;;;;5055127;28;20482;-52
2022/01/05 10:16:27;;;;;;;14.85;12.65;;;;;;;;;;5055418;28;20205;-53
2022/01/05 10:18:54;;;;;;;13.63;11.52;;;;;;;;;;5055009;28;20216;-52
2022/01/05 10:21:22;;;;;;;13.52;11.85;;;;;;;;;;5054882;28;20223;-52
2022/01/05 10:23:52;;;;;;;13.40;11.02;;;;;;;;;;5053882;28;20232;-52
2022/01/05 10:26:29;;;;;;;13.00;11.07;;;;;;;;;;5053978;28;20201;-52
2022/01/05 10:28:58;;;;;;;12.77;10.70;;;;;;;;;;5054536;28;20204;-52
2022/01/05 10:31:26;;;;;;;11.25;10.15;;;;;;;;;;5054440;28;20205;-52
2022/01/05 10:33:55;;;;;;;12.30;10.07;;;;;;;;;;5054233;28;20200;-56
2022/01/05 10:36:22;;;;;;;11.35;9.40;;;;;;;;;;5054043;28;20245;-52
2022/01/05 10:38:55;;;;;;;12.25;9.68;;;;;;;;;;5054556;28;20216;-51
2022/01/05 10:41:23;;;;;;;10.85;8.70;;;;;;;;;;5054099;28;20197;-52
2022/01/05 10:44:11;;;;;;;13.32;8.70;;;;;;;;;;5054124;28;20444;-52
2022/01/05 10:46:40;;;;;;;10.35;8.07;;;;;;;;;;5054132;28;20227;-52
2022/01/05 10:49:08;;;;;;;10.18;8.00;;;;;;;;;;5054079;28;20201;-52
2022/01/05 10:51:36;;;;;;;11.25;8.23;;;;;;;;;;5054240;28;20491;-52
2022/01/05 10:54:21;;;;;;;10.32;7.57;;;;;;;;;;5054808;28;20211;-51
2022/01/05 10:56:50;;;;;;;8.82;7.53;;;;;;;;;;5054594;28;20205;-52
2022/01/05 10:59:28;;;;;;;9.20;6.85;;;;;;;;;;5054167;28;20212;-52
2022/01/05 11:01:55;;;;;;;7.95;6.93;;;;;;;;;;5054270;28;20513;-52
2022/01/05 11:04:23;;;;;;;9.65;6.70;;;;;;;;;;5054509;28;20236;-52
2022/01/05 11:06:57;;;;;;;10.48;6.22;;;;;;;;;;5054583;28;20213;-52
2022/01/05 11:09:25;;;;;;;8.45;6.20;;;;;;;;;;5054739;28;20205;-52
2022/01/05 11:11:54;;;;;;;8.23;5.75;;;;;;;;;;5055795;28;20217;-52
2022/01/05 11:14:22;;;;;;;8.15;5.45;;;;;;;;;;5059026;28;20586;-52
2022/01/05 11:16:52;;;;;;;7.18;5.32;;;;;;;;;;5058681;28;20205;-52
2022/01/05 11:19:20;;;;;;;6.78;5.40;;;;;;;;;;5057779;28;20584;-52
2022/01/05 11:22:01;;;;;;;6.50;5.40;;;;;;;;;;5058570;28;20483;-52
2022/01/05 11:24:30;;;;;;;5.90;5.25;;;;;;;;;;5057031;28;20327;-52
2022/01/05 11:26:59;;;;;;;6.65;5.10;;;;;;;;;;5058370;28;20216;-52
2022/01/05 11:29:26;;;;;;;6.72;4.63;;;;;;;;;;5057844;28;20212;-53
2022/01/05 11:31:56;;;;;;;5.30;4.72;;;;;;;;;;5058508;28;20201;-53
2022/01/05 11:34:23;;;;;;;5.72;4.20;;;;;;;;;;5058078;28;20197;-52
2022/01/05 11:36:51;;;;;;;5.70;4.60;;;;;;;;;;5057442;28;20241;-53
2022/01/05 11:39:18;;;;;;;6.03;4.22;;;;;;;;;;5062860;28;20213;-53
2022/01/05 11:41:47;;;;;;;6.00;4.18;;;;;;;;;;5069663;28;20197;-53
2022/01/05 11:44:17;;;;;;;5.95;4.15;;;;;;;;;;5061687;28;20225;-53
2022/01/05 11:46:46;;;;;;;7.25;4.30;;;;;;;;;;5058076;28;20262;-52
2022/01/05 11:49:15;;;;;;;4.65;3.67;;;;;;;;;;5057290;28;20262;-53
2022/01/05 11:51:52;;;;;;;5.40;3.78;;;;;;;;;;5056690;28;20211;-52
2022/01/05 11:54:22;;;;;;;4.50;3.60;;;;;;;;;;5056803;28;20203;-52
2022/01/05 11:56:51;;;;;;;4.28;3.67;;;;;;;;;;5056369;28;20205;-53
2022/01/05 11:59:36;;;;;;;4.80;3.25;;;;;;;;;;5055676;28;20316;-53
2022/01/05 12:02:11;;;;;;;4.00;3.30;;;;;;;;;;5055567;28;20197;-52
2022/01/05 12:04:57;;;;;;;6.20;3.47;;;;;;;;;;5056263;28;20682;-53
2022/01/05 12:07:36;;;;;;;3.45;3.15;;;;;;;;;;5056408;28;20303;-53
2022/01/05 12:10:10;;;;;;;3.72;3.10;;;;;;;;;;5056390;28;20620;-53
2022/01/05 12:12:38;;;;;;;4.28;3.20;;;;;;;;;;5055707;28;20674;-53
2022/01/05 12:15:06;;;;;;;3.97;3.10;;;;;;;;;;5055984;28;20512;-52
2022/01/05 12:17:35;;;;;;;4.10;2.83;;;;;;;;;;5055658;28;20209;-52
2022/01/05 12:20:10;;;;;;;3.95;2.97;;;;;;;;;;5055843;28;20215;-52
2022/01/05 12:22:38;;;;;;;3.47;2.78;;;;;;;;;;5055484;28;20494;-53
2022/01/05 12:25:22;;;;;;;4.82;2.95;;;;;;;;;;5056292;28;20674;-53
2022/01/05 12:27:54;;;;;;;2.83;2.30;;;;;;;;;;5055481;28;20205;-53
2022/01/05 12:30:38;;;;;;;3.53;2.58;;;;;;;;;;5055459;28;20220;-52
2022/01/05 12:33:18;;;;;;;2.70;2.50;;;;;;;;;;5054813;28;20193;-52
2022/01/05 12:35:56;;;;;;;2.80;2.47;;;;;;;;;;5055368;28;20224;-52
2022/01/05 12:38:37;;;;;;;2.78;2.08;;;;;;;;;;5055624;28;20205;-52
2022/01/05 12:41:24;;;;;;;3.28;2.60;;;;;;;;;;5056552;28;20200;-53
2022/01/05 12:43:52;;;;;;;2.72;2.30;;;;;;;;;;5055074;28;20224;-53
2022/01/05 12:46:33;;;;;;;2.85;2.47;;;;;;;;;;5056583;28;20307;-52
2022/01/05 12:49:06;;;;;;;2.42;2.22;;;;;;;;;;5055634;28;20511;-52
2022/01/05 12:51:44;;;;;;;2.38;2.17;;;;;;;;;;5055096;28;20215;-52
2022/01/05 12:54:13;;;;;;;3.80;2.20;;;;;;;;;;5055096;28;20209;-53
2022/01/05 12:56:43;;;;;;;3.25;2.53;;;;;;;;;;5054384;28;20472;-53
2022/01/05 12:59:12;;;;;;;2.20;2.00;;;;;;;;;;5055034;28;20547;-53
2022/01/05 13:01:41;;;;;;;2.13;1.90;;;;;;;;;;5054843;28;20205;-53
2022/01/05 13:04:11;;;;;;;3.25;2.10;;;;;;;;;;5054847;28;20378;-52
2022/01/05 13:06:39;;;;;;;2.67;1.90;;;;;;;;;;5054573;28;20223;-52
2022/01/05 13:09:08;;;;;;;2.75;2.20;;;;;;;;;;5054512;28;20216;-53
2022/01/05 13:11:37;;;;;;;2.45;2.00;;;;;;;;;;5054770;28;20205;-52
2022/01/05 13:14:18;;;;;;;2.72;1.65;;;;;;;;;;5035110;28;20206;-53
2022/01/05 13:16:45;;;;;;;2.38;1.80;;;;;;;;;;5035074;28;20208;-52
2022/01/05 13:19:24;;;;;;;1.92;1.73;;;;;;;;;;5037995;28;20201;-53
2022/01/05 13:21:52;;;;;;;1.83;1.60;;;;;;;;;;5054435;28;20216;-53
2022/01/05 13:24:20;;;;;;;2.10;1.60;;;;;;;;;;5055376;28;20326;-52
2022/01/05 13:27:00;;;;;;;2.78;1.75;;;;;;;;;;5055040;28;20216;-52
2022/01/05 13:29:28;;;;;;;13.30;12.20;;;;;;;;;;5054863;28;20197;-52
2022/01/05 13:31:56;;;;;;;24.58;22.52;;;;;;;;;;5054448;28;20205;-52
2022/01/05 13:34:31;;;;;;;18.90;17.30;;;;;;;;;;5054564;28;20519;-53
2022/01/05 13:36:59;;;;;;;24.80;22.40;;;;;;;;;;5055122;28;20244;-52
2022/01/05 13:39:37;;;;;;;23.60;21.50;;;;;;;;;;5054272;28;20200;-53
2022/01/05 13:42:04;;;;;;;20.20;18.38;;;;;;;;;;5054531;28;20521;-52
2022/01/05 13:44:32;;;;;;;20.25;18.35;;;;;;;;;;5054642;28;20225;-52
2022/01/05 13:46:59;;;;;;;19.23;17.42;;;;;;;;;;5054865;28;20624;-53
2022/01/05 13:49:27;;;;;;;18.10;16.48;;;;;;;;;;5053941;28;20637;-52
2022/01/05 13:52:06;;;;;;;17.17;15.60;;;;;;;;;;5054737;28;20210;-52
2022/01/05 13:54:35;;;;;;;16.25;14.70;;;;;;;;;;5054600;28;20211;-53
2022/01/05 13:57:02;;;;;;;15.88;14.43;;;;;;;;;;5054568;28;20216;-52
2022/01/05 13:59:40;;;;;;;15.10;13.73;;;;;;;;;;5054395;28;20732;-52
2022/01/05 14:02:09;;;;;;;14.45;13.13;;;;;;;;;;5055017;28;20204;-52
2022/01/05 14:04:53;;;;;;;14.68;13.48;;;;;;;;;;5053846;28;20320;-53
2022/01/05 14:07:23;;;;;;;13.95;12.55;;;;;;;;;;5053964;28;20600;-52
2022/01/05 14:10:07;;;;;;;12.90;11.80;;;;;;;;;;5054635;28;20197;-53
2022/01/05 14:12:35;;;;;;;13.02;11.75;;;;;;;;;;5053666;28;20590;-53
2022/01/05 14:15:03;;;;;;;12.45;11.35;;;;;;;;;;5055189;28;20201;-53
2022/01/05 14:17:31;;;;;;;11.55;10.55;;;;;;;;;;5054308;28;20205;-53
2022/01/05 14:20:15;;;;;;;10.85;9.82;;;;;;;;;;5054365;28;20231;-52
2022/01/05 14:22:44;;;;;;;11.00;9.95;;;;;;;;;;5054262;28;20215;-52
2022/01/05 14:25:12;;;;;;;10.07;9.20;;;;;;;;;;5054234;28;20256;-52
2022/01/05 14:27:41;;;;;;;10.25;9.13;;;;;;;;;;5054671;28;20217;-52
2022/01/05 14:30:10;;;;;;;11.40;9.30;;;;;;;;;;5053931;28;20199;-52
2022/01/05 14:32:38;;;;;;;9.70;8.80;;;;;;;;;;5053318;28;20615;-52
2022/01/05 14:35:13;;;;;;;8.82;7.90;;;;;;;;;;5054812;28;20204;-52
2022/01/05 14:37:59;;;;;;;8.63;7.82;;;;;;;;;;5054633;28;20204;-52
2022/01/05 14:40:29;;;;;;;8.75;7.95;;;;;;;;;;5053187;28;20244;-53
2022/01/05 14:42:57;;;;;;;7.75;7.10;;;;;;;;;;5053855;28;20205;-53
2022/01/05 14:45:25;;;;;;;7.78;7.00;;;;;;;;;;5054738;28;20224;-53
2022/01/05 14:47:52;;;;;;;7.68;6.97;;;;;;;;;;5058009;28;20209;-52
2022/01/05 14:50:20;;;;;;;7.35;6.65;;;;;;;;;;5057622;28;20204;-52
2022/01/05 14:52:47;;;;;;;7.00;6.40;;;;;;;;;;5057660;28;20207;-52
2022/01/05 14:55:16;;;;;;;6.47;5.88;;;;;;;;;;5058447;28;20262;-53
2022/01/05 14:57:44;;;;;;;7.10;6.45;;;;;;;;;;5059154;28;20212;-52